createdAt,value
2018-05-15T00:01:30.359Z,101651.06
2018-05-15T00:03:57.975Z,101650.19
2018-05-15T00:06:25.686Z,101643.63
2018-05-15T00:08:53.298Z,101645.77
2018-05-15T00:11:21.706Z,101642.25
2018-05-15T00:13:49.387Z,101637.42
2018-05-15T00:16:17.031Z,101636.91
2018-05-15T00:18:44.710Z,101638.59
2018-05-15T00:21:12.374Z,101634.20
2018-05-15T00:23:40.036Z,101640.72
2018-05-15T00:26:07.679Z,101638.11
2018-05-15T00:28:35.297Z,101632.47
2018-05-15T00:31:02.935Z,101640.67
2018-05-15T00:33:30.548Z,101638.07
2018-05-15T00:35:58.247Z,101642.34
2018-05-15T00:38:25.862Z,101645.32
2018-05-15T00:40:53.503Z,101645.70
2018-05-15T00:43:21.124Z,101646.53
2018-05-15T00:45:48.779Z,101649.96
2018-05-15T00:48:16.403Z,101640.80
2018-05-15T00:50:44.019Z,101640.32
2018-05-15T00:53:11.659Z,101637.70
2018-05-15T00:55:44.996Z,101646.34
2018-05-15T00:58:12.638Z,101655.84
2018-05-15T01:00:40.295Z,101653.19
2018-05-15T01:03:07.958Z,101659.23
2018-05-15T01:05:35.633Z,101649.63
2018-05-15T01:08:03.385Z,101658.22
2018-05-15T01:10:31.051Z,101639.45
2018-05-15T01:12:58.691Z,101629.75
2018-05-15T01:15:26.307Z,101635.30
2018-05-15T01:17:53.958Z,101639.11
2018-05-15T01:20:21.574Z,101642.09
2018-05-15T01:22:49.211Z,101648.98
2018-05-15T01:25:16.918Z,101649.79
2018-05-15T01:27:44.555Z,101662.75
2018-05-15T01:30:12.174Z,101658.73
2018-05-15T01:32:39.910Z,101655.59
2018-05-15T01:35:07.575Z,101657.23
2018-05-15T01:37:35.214Z,101647.19
2018-05-15T01:40:02.845Z,101658.41
2018-05-15T01:42:30.563Z,101659.65
2018-05-15T01:44:58.178Z,101654.79
2018-05-15T01:47:25.886Z,101653.91
2018-05-15T01:49:53.502Z,101653.38
2018-05-15T01:52:21.210Z,101651.19
2018-05-15T01:54:48.823Z,101645.94
2018-05-15T01:57:16.530Z,101644.20
2018-05-15T01:59:44.142Z,101643.72
2018-05-15T02:02:11.795Z,101637.16
2018-05-15T02:04:39.410Z,101639.33
2018-05-15T02:07:07.083Z,101637.11
2018-05-15T02:09:34.723Z,101635.79
2018-05-15T02:12:02.338Z,101636.56
2018-05-15T02:14:29.974Z,101638.67
2018-05-15T02:16:57.630Z,101639.09
2018-05-15T02:19:25.270Z,101633.39
2018-05-15T02:21:52.955Z,101640.27
2018-05-15T02:24:20.620Z,101631.51
2018-05-15T02:26:48.236Z,101631.02
2018-05-15T02:29:15.874Z,101631.00
2018-05-15T02:31:43.492Z,101629.17
2018-05-15T02:34:11.163Z,101628.67
2018-05-15T02:36:38.826Z,101630.34
2018-05-15T02:39:06.584Z,101629.75
2018-05-15T02:41:34.206Z,101624.42
2018-05-15T02:44:01.850Z,101622.95
2018-05-15T02:46:29.469Z,101628.02
2018-05-15T02:48:57.146Z,101623.52
2018-05-15T02:51:24.771Z,101629.95
2018-05-15T02:53:52.467Z,101622.52
2018-05-15T02:56:20.127Z,101621.59
2018-05-15T02:58:47.772Z,101617.20
2018-05-15T03:01:15.387Z,101620.61
2018-05-15T03:03:43.023Z,101622.70
2018-05-15T03:06:10.638Z,101619.59
2018-05-15T03:08:38.290Z,101622.08
2018-05-15T03:11:05.907Z,101624.62
2018-05-15T03:13:33.550Z,101621.14
2018-05-15T03:16:01.223Z,101619.34
2018-05-15T03:18:28.838Z,101619.73
2018-05-15T03:20:56.478Z,101616.30
2018-05-15T03:23:24.092Z,101619.34
2018-05-15T03:25:51.740Z,101615.00
2018-05-15T03:28:19.431Z,101614.58
2018-05-15T03:30:47.075Z,101619.34
2018-05-15T03:33:14.754Z,101621.95
2018-05-15T03:35:42.422Z,101624.98
2018-05-15T03:38:10.035Z,101625.91
2018-05-15T03:40:37.675Z,101625.91
2018-05-15T03:43:05.291Z,101635.92
2018-05-15T03:45:32.931Z,101633.72
2018-05-15T03:48:00.551Z,101632.41
2018-05-15T03:50:28.187Z,101631.53
2018-05-15T03:52:55.852Z,101638.03
2018-05-15T03:55:23.515Z,101639.38
2018-05-15T03:57:51.179Z,101647.61
2018-05-15T04:00:30.438Z,101644.59
2018-05-15T04:03:09.951Z,101633.47
2018-05-15T04:05:49.390Z,101628.45
2018-05-15T04:08:17.006Z,101623.50
2018-05-15T04:10:44.648Z,101627.71
2018-05-15T04:13:14.015Z,101630.69
2018-05-15T04:15:41.668Z,101630.67
2018-05-15T04:18:09.291Z,101632.00
2018-05-15T04:20:37.006Z,101626.44
2018-05-15T04:23:04.667Z,101624.78
2018-05-15T04:25:32.307Z,101621.66
2018-05-15T04:28:00.083Z,101621.07
2018-05-15T04:30:27.755Z,101617.40
2018-05-15T04:32:55.374Z,101622.36
2018-05-15T04:35:23.048Z,101619.95
2018-05-15T04:37:50.742Z,101617.44
2018-05-15T04:40:18.406Z,101626.95
2018-05-15T04:42:46.046Z,101628.69
2018-05-15T04:45:13.674Z,101623.05
2018-05-15T04:47:41.385Z,101620.00
2018-05-15T04:50:08.999Z,101623.95
2018-05-15T04:52:36.639Z,101618.83
2018-05-15T04:55:04.259Z,101627.61
2018-05-15T04:57:31.902Z,101624.65
2018-05-15T04:59:59.519Z,101624.77
2018-05-15T05:02:27.166Z,101628.38
2018-05-15T05:04:54.790Z,101632.00
2018-05-15T05:07:22.431Z,101628.61
2018-05-15T05:09:50.046Z,101630.03
2018-05-15T05:12:17.719Z,101626.19
2018-05-15T05:14:45.335Z,101626.30
2018-05-15T05:17:13.029Z,101625.14
2018-05-15T05:19:40.710Z,101623.14
2018-05-15T05:22:08.462Z,101629.36
2018-05-15T05:24:36.078Z,101631.20
2018-05-15T05:27:03.732Z,101626.14
2018-05-15T05:29:31.359Z,101631.43
2018-05-15T05:31:59.005Z,101629.31
2018-05-15T05:34:26.679Z,101629.34
2018-05-15T05:36:54.315Z,101636.37
2018-05-15T05:39:21.930Z,101635.12
2018-05-15T05:41:49.567Z,101637.30
2018-05-15T05:44:17.222Z,101636.48
2018-05-15T05:46:44.883Z,101632.66
2018-05-15T05:49:12.557Z,101622.78
2018-05-15T05:51:40.210Z,101622.91
2018-05-15T05:54:07.871Z,101622.59
2018-05-15T05:56:35.628Z,101620.08
2018-05-15T05:59:03.299Z,101624.55
2018-05-15T06:01:30.918Z,101625.91
2018-05-15T06:03:58.558Z,101627.71
2018-05-15T06:06:26.171Z,101619.94
2018-05-15T06:08:53.847Z,101619.55
2018-05-15T06:11:21.511Z,101617.86
2018-05-15T06:13:49.151Z,101619.69
2018-05-15T06:16:16.766Z,101616.69
2018-05-15T06:18:44.407Z,101612.41
2018-05-15T06:21:12.022Z,101616.83
2018-05-15T06:23:39.670Z,101616.41
2018-05-15T06:26:07.382Z,101615.57
2018-05-15T06:28:35.019Z,101608.15
2018-05-15T06:31:02.635Z,101612.97
2018-05-15T06:33:30.270Z,101612.54
2018-05-15T06:35:57.931Z,101609.97
2018-05-15T06:38:25.596Z,101609.13
2018-05-15T06:40:53.259Z,101613.08
2018-05-15T06:43:20.968Z,101608.33
2018-05-15T06:45:48.547Z,101604.45
2018-05-15T06:48:16.337Z,101610.14
2018-05-15T06:50:43.959Z,101609.30
2018-05-15T06:53:11.599Z,101601.45
2018-05-15T06:55:39.214Z,101606.23
2018-05-15T06:58:06.880Z,101600.11
2018-05-15T07:00:34.559Z,101604.94
2018-05-15T07:03:02.217Z,101595.72
2018-05-15T07:05:29.878Z,101606.64
2018-05-15T07:07:57.495Z,101603.13
2018-05-15T07:10:25.136Z,101601.33
2018-05-15T07:12:52.770Z,101601.25
2018-05-15T07:15:20.406Z,101595.50
2018-05-15T07:17:48.184Z,101590.19
2018-05-15T07:20:15.823Z,101592.29
2018-05-15T07:22:43.448Z,101597.47
2018-05-15T07:25:11.089Z,101591.23
2018-05-15T07:27:38.703Z,101595.98
2018-05-15T07:30:06.336Z,101598.05
2018-05-15T07:32:33.948Z,101590.95
2018-05-15T07:35:01.575Z,101597.90
2018-05-15T07:37:29.222Z,101587.78
2018-05-15T07:39:56.951Z,101592.05
2018-05-15T07:42:24.611Z,101590.17
2018-05-15T07:44:52.274Z,101600.63
2018-05-15T07:47:19.887Z,101597.45
2018-05-15T07:49:47.603Z,101598.66
2018-05-15T07:52:15.263Z,101596.84
2018-05-15T07:54:42.927Z,101591.98
2018-05-15T07:57:10.591Z,101602.47
2018-05-15T07:59:38.237Z,101603.28
2018-05-15T08:02:05.972Z,101600.13
2018-05-15T08:04:33.679Z,101595.70
2018-05-15T08:07:01.295Z,101598.34
2018-05-15T08:09:28.942Z,101610.61
2018-05-15T08:11:56.565Z,101603.96
2018-05-15T08:14:24.226Z,101603.42
2018-05-15T08:16:51.867Z,101600.20
2018-05-15T08:19:19.550Z,101596.63
2018-05-15T08:21:47.219Z,101597.39
2018-05-15T08:24:14.836Z,101600.85
2018-05-15T08:26:42.535Z,101588.88
2018-05-15T08:29:10.203Z,101598.45
2018-05-15T08:31:37.838Z,101592.69
2018-05-15T08:34:05.447Z,101598.70
2018-05-15T08:36:33.079Z,101593.30
2018-05-15T08:39:00.843Z,101600.17
2018-05-15T08:41:28.480Z,101595.71
2018-05-15T08:43:56.098Z,101598.75
2018-05-15T08:46:23.732Z,101608.74
2018-05-15T08:48:51.778Z,101601.56
2018-05-15T08:51:19.419Z,101599.21
2018-05-15T08:53:47.130Z,101592.96
2018-05-15T08:56:14.763Z,101591.06
2018-05-15T08:58:42.374Z,101586.52
2018-05-15T09:01:10.002Z,101588.56
2018-05-15T09:03:37.680Z,101587.42
2018-05-15T09:06:05.350Z,101579.38
2018-05-15T09:08:32.963Z,101585.45
2018-05-15T09:11:00.600Z,101581.44
2018-05-15T09:13:28.330Z,101578.70
2018-05-15T09:15:55.966Z,101577.31
2018-05-15T09:18:23.653Z,101582.89
2018-05-15T09:20:51.319Z,101566.09
2018-05-15T09:23:18.930Z,101567.69
2018-05-15T09:25:46.644Z,101562.61
2018-05-15T09:28:14.256Z,101561.06
2018-05-15T09:30:41.966Z,101569.70
2018-05-15T09:33:09.603Z,101562.05
2018-05-15T09:35:37.286Z,101568.97
2018-05-15T09:38:04.955Z,101562.25
2018-05-15T09:40:32.618Z,101563.53
2018-05-15T09:43:00.256Z,101568.31
2018-05-15T09:45:27.890Z,101566.02
2018-05-15T09:47:55.523Z,101559.73
2018-05-15T09:50:23.131Z,101558.29
2018-05-15T09:52:50.774Z,101556.38
2018-05-15T09:55:18.391Z,101562.31
2018-05-15T09:57:46.027Z,101555.87
2018-05-15T10:00:13.648Z,101549.05
2018-05-15T10:02:41.375Z,101545.82
2018-05-15T10:05:09.039Z,101547.92
2018-05-15T10:07:36.716Z,101545.09
2018-05-15T10:10:04.354Z,101542.70
2018-05-15T10:12:31.990Z,101556.31
2018-05-15T10:14:59.610Z,101546.21
2018-05-15T10:17:27.346Z,101548.89
2018-05-15T10:19:55.033Z,101546.70
2018-05-15T10:22:22.663Z,101540.94
2018-05-15T10:24:50.298Z,101552.49
2018-05-15T10:27:17.998Z,101526.92
2018-05-15T10:29:45.635Z,101531.30
2018-05-15T10:32:13.331Z,101540.52
2018-05-15T10:34:40.988Z,101534.34
2018-05-15T10:37:08.602Z,101541.58
2018-05-15T10:39:36.305Z,101521.86
2018-05-15T10:42:03.915Z,101530.02
2018-05-15T10:44:31.634Z,101518.25
2018-05-15T10:46:59.243Z,101521.87
2018-05-15T10:49:26.962Z,101515.63
2018-05-15T10:51:54.622Z,101522.13
2018-05-15T10:54:22.257Z,101504.33
2018-05-15T10:56:50.045Z,101514.34
2018-05-15T10:59:17.678Z,101512.44
2018-05-15T11:01:45.290Z,101503.02
2018-05-15T11:04:12.927Z,101508.10
2018-05-15T11:06:40.599Z,101495.00
2018-05-15T11:09:08.879Z,101507.76
2018-05-15T11:11:36.546Z,101500.27
2018-05-15T11:14:04.186Z,101499.19
2018-05-15T11:16:31.799Z,101497.47
2018-05-15T11:22:11.631Z,101497.87
2018-05-15T11:24:51.276Z,101486.50
2018-05-15T11:27:18.936Z,101487.43
2018-05-15T11:29:46.604Z,101480.34
2018-05-15T11:32:14.211Z,101480.20
2018-05-15T11:34:41.843Z,101481.00
2018-05-15T11:37:09.456Z,101482.62
2018-05-15T11:39:37.147Z,101481.30
2018-05-15T11:42:04.778Z,101481.30
2018-05-15T11:44:32.391Z,101472.44
2018-05-15T11:47:00.135Z,101465.74
2018-05-15T11:49:28.437Z,101461.69
2018-05-15T11:51:56.158Z,101456.22
2018-05-15T11:54:23.057Z,101456.11
2018-05-15T11:56:50.691Z,101470.52
2018-05-15T11:59:18.302Z,101454.60
2018-05-15T12:01:45.958Z,101449.73
2018-05-15T12:04:13.570Z,101453.28
2018-05-15T12:06:41.203Z,101455.50
2018-05-15T12:09:08.905Z,101436.39
2018-05-15T12:11:36.466Z,101430.66
2018-05-15T12:14:04.078Z,101424.45
2018-05-15T12:16:31.778Z,101435.17
2018-05-15T12:18:59.391Z,101415.95
2018-05-15T12:21:27.031Z,101412.13
2018-05-15T12:23:54.763Z,101414.13
2018-05-15T12:26:22.431Z,101412.52
2018-05-15T12:28:50.043Z,101418.92
2018-05-15T12:31:17.758Z,101408.92
2018-05-15T12:33:45.359Z,101399.28
2018-05-15T12:36:12.986Z,101407.30
2018-05-15T12:38:40.599Z,101399.41
2018-05-15T12:41:08.299Z,101410.81
2018-05-15T12:43:35.906Z,101400.57
2018-05-15T12:46:03.570Z,101411.86
2018-05-15T12:48:31.328Z,101404.16
2018-05-15T12:50:58.945Z,101400.05
2018-05-15T12:53:26.574Z,101402.41
2018-05-15T12:55:54.187Z,101397.00
2018-05-15T12:58:21.818Z,101389.79
2018-05-15T13:00:49.426Z,101397.56
2018-05-15T13:03:17.067Z,101400.47
2018-05-15T13:05:44.776Z,101392.79
2018-05-15T13:08:12.491Z,101390.95
2018-05-15T13:10:40.105Z,101392.06
2018-05-15T13:13:07.742Z,101387.00
2018-05-15T13:15:35.582Z,101387.93
2018-05-15T13:18:03.220Z,101377.78
2018-05-15T13:20:30.903Z,101394.32
2018-05-15T13:22:58.532Z,101384.61
2018-05-15T13:25:26.147Z,101378.16
2018-05-15T13:27:53.779Z,101386.23
2018-05-15T13:30:21.386Z,101374.72
2018-05-15T13:32:49.015Z,101368.70
2018-05-15T13:35:16.681Z,101370.61
2018-05-15T13:37:44.321Z,101365.84
2018-05-15T13:40:11.994Z,101368.33
2018-05-15T13:42:39.623Z,101371.59
2018-05-15T13:45:07.323Z,101385.89
2018-05-15T13:47:34.959Z,101371.27
2018-05-15T13:50:02.571Z,101359.30
2018-05-15T13:52:30.405Z,101363.38
2018-05-15T13:54:58.011Z,101375.14
2018-05-15T13:57:25.666Z,101364.45
2018-05-15T13:59:53.278Z,101364.73
2018-05-15T14:02:20.891Z,101356.16
2018-05-15T14:04:48.519Z,101358.16
2018-05-15T14:07:16.131Z,101360.39
2018-05-15T14:09:43.762Z,101362.30
2018-05-15T14:12:11.375Z,101368.28
2018-05-15T14:14:39.064Z,101357.65
2018-05-15T14:17:06.730Z,101359.80
2018-05-15T14:19:34.395Z,101356.28
2018-05-15T14:22:02.010Z,101367.30
2018-05-15T14:24:29.647Z,101364.05
2018-05-15T14:26:57.279Z,101361.17
2018-05-15T14:29:24.933Z,101360.84
2018-05-15T14:31:52.602Z,101365.91
2018-05-15T14:34:20.271Z,101360.78
2018-05-15T14:36:48.023Z,101360.61
2018-05-15T14:39:15.654Z,101355.13
2018-05-15T14:41:55.032Z,101355.48
2018-05-15T14:44:22.775Z,101362.91
2018-05-15T14:46:50.394Z,101372.00
2018-05-15T14:49:18.119Z,101366.17
2018-05-15T14:51:45.735Z,101362.23
2018-05-15T14:54:13.449Z,101364.38
2018-05-15T14:56:41.059Z,101371.30
2018-05-15T14:59:08.711Z,101363.28
2018-05-15T15:01:36.426Z,101369.66
2018-05-15T15:04:04.087Z,101358.38
2018-05-15T15:06:31.723Z,101367.30
2018-05-15T15:08:59.525Z,101354.27
2018-05-15T15:11:27.187Z,101362.34
2018-05-15T15:13:54.796Z,101364.30
2018-05-15T15:16:22.432Z,101360.50
2018-05-15T15:18:50.046Z,101361.10
2018-05-15T15:21:17.686Z,101356.42
2018-05-15T15:23:45.379Z,101357.91
2018-05-15T15:26:12.950Z,101360.31
2018-05-15T15:28:40.559Z,101359.64
2018-05-15T15:31:08.199Z,101356.27
2018-05-15T15:33:35.830Z,101353.78
2018-05-15T15:36:03.467Z,101352.16
2018-05-15T15:38:31.163Z,101356.67
2018-05-15T15:40:58.799Z,101357.25
2018-05-15T15:43:26.419Z,101352.07
2018-05-15T15:45:54.150Z,101349.52
2018-05-15T15:48:21.767Z,101347.81
2018-05-15T15:50:49.414Z,101346.53
2018-05-15T15:53:17.039Z,101344.81
2018-05-15T15:55:44.704Z,101342.66
2018-05-15T15:58:12.318Z,101342.70
2018-05-15T16:00:39.994Z,101343.23
2018-05-15T16:03:07.687Z,101343.81
2018-05-15T16:05:35.326Z,101342.58
2018-05-15T16:08:02.959Z,101351.91
2018-05-15T16:10:30.571Z,101356.41
2018-05-15T16:12:58.211Z,101363.58
2018-05-15T16:15:25.894Z,101364.59
2018-05-15T16:17:53.575Z,101379.22
2018-05-15T16:20:21.179Z,101384.19
2018-05-15T16:22:48.850Z,101375.13
2018-05-15T16:25:16.456Z,101372.17
2018-05-15T16:27:44.106Z,101378.84
2018-05-15T16:30:11.723Z,101375.45
2018-05-15T16:32:39.386Z,101367.16
2018-05-15T16:35:07.003Z,101368.56
2018-05-15T16:37:34.704Z,101363.41
2018-05-15T16:40:02.295Z,101362.66
2018-05-15T16:42:29.979Z,101364.05
2018-05-15T16:44:57.644Z,101367.62
2018-05-15T16:47:25.291Z,101370.33
2018-05-15T16:49:52.936Z,101373.00
2018-05-15T16:52:20.622Z,101366.49
2018-05-15T16:54:48.291Z,101370.95
2018-05-15T16:57:15.956Z,101367.94
2018-05-15T16:59:43.615Z,101368.45
2018-05-15T17:02:11.279Z,101371.56
2018-05-15T17:04:38.899Z,101369.42
2018-05-15T17:07:06.534Z,101373.41
2018-05-15T17:09:34.166Z,101369.05
2018-05-15T17:12:01.828Z,101363.86
2018-05-15T17:14:29.672Z,101359.97
2018-05-15T17:16:57.455Z,101361.77
2018-05-15T17:19:25.119Z,101358.36
2018-05-15T17:21:52.738Z,101356.25
2018-05-15T17:24:20.452Z,101354.58
2018-05-15T17:26:48.072Z,101345.01
2018-05-15T17:29:15.718Z,101341.53
2018-05-15T17:31:43.330Z,101337.20
2018-05-15T17:34:10.971Z,101340.27
2018-05-15T17:36:38.583Z,101334.17
2018-05-15T17:39:06.223Z,101332.00
2018-05-15T17:41:33.838Z,101325.84
2018-05-15T17:44:01.476Z,101323.25
2018-05-15T17:46:29.099Z,101310.57
2018-05-15T17:48:56.735Z,101316.73
2018-05-15T17:51:24.354Z,101316.73
2018-05-15T17:53:52.082Z,101311.08
2018-05-15T17:56:19.699Z,101305.43
2018-05-15T17:58:47.338Z,101292.79
2018-05-15T18:01:14.951Z,101297.60
2018-05-15T18:03:42.630Z,101293.29
2018-05-15T18:06:10.242Z,101301.16
2018-05-15T18:08:38.036Z,101306.00
2018-05-15T18:11:05.611Z,101306.91
2018-05-15T18:13:33.251Z,101299.48
2018-05-15T18:16:00.867Z,101303.01
2018-05-15T18:18:28.503Z,101304.78
2018-05-15T18:20:56.121Z,101305.23
2018-05-15T18:23:23.832Z,101304.36
2018-05-15T18:25:51.449Z,101307.86
2018-05-15T18:28:19.155Z,101314.86
2018-05-15T18:30:46.771Z,101302.18
2018-05-15T18:33:14.397Z,101306.11
2018-05-15T18:35:42.143Z,101307.00
2018-05-15T18:38:09.812Z,101307.88
2018-05-15T18:40:37.453Z,101314.85
2018-05-15T18:43:05.074Z,101310.05
2018-05-15T18:45:32.715Z,101308.73
2018-05-15T18:48:00.351Z,101311.79
2018-05-15T18:50:27.995Z,101311.35
2018-05-15T18:52:55.611Z,101317.91
2018-05-15T18:55:23.250Z,101315.27
2018-05-15T18:57:50.867Z,101314.84
2018-05-15T19:00:18.516Z,101325.33
2018-05-15T19:02:46.223Z,101322.27
2018-05-15T19:05:13.887Z,101323.58
2018-05-15T19:07:41.555Z,101327.06
2018-05-15T19:10:09.306Z,101330.53
2018-05-15T19:12:36.918Z,101342.77
2018-05-15T19:15:04.563Z,101351.91
2018-05-15T19:17:32.180Z,101360.17
2018-05-15T19:19:59.860Z,101369.79
2018-05-15T19:22:27.527Z,101372.40
2018-05-15T19:24:55.176Z,101369.77
2018-05-15T19:27:22.795Z,101373.68
2018-05-15T19:29:50.439Z,101370.20
2018-05-15T19:32:18.062Z,101360.58
2018-05-15T19:34:51.439Z,101358.84
2018-05-15T19:37:19.059Z,101367.55
2018-05-15T19:39:46.694Z,101360.98
2018-05-15T19:42:14.310Z,101359.24
2018-05-15T19:44:42.019Z,101360.95
2018-05-15T19:47:09.678Z,101359.17
2018-05-15T19:49:37.301Z,101352.20
2018-05-15T19:52:05.046Z,101352.60
2018-05-15T19:54:32.646Z,101355.20
2018-05-15T19:57:00.328Z,101354.77
2018-05-15T19:59:27.946Z,101358.23
2018-05-15T20:01:55.672Z,101356.03
2018-05-15T20:04:23.226Z,101354.28
2018-05-15T20:06:50.863Z,101358.61
2018-05-15T20:09:18.536Z,101352.94
2018-05-15T20:11:46.207Z,101357.28
2018-05-15T20:14:13.863Z,101356.84
2018-05-15T20:16:41.528Z,101361.17
2018-05-15T20:19:09.143Z,101362.03
2018-05-15T20:21:36.779Z,101362.44
2018-05-15T20:24:04.410Z,101367.20
2018-05-15T20:26:32.074Z,101361.95
2018-05-15T20:28:59.735Z,101361.02
2018-05-15T20:31:27.357Z,101361.43
2018-05-15T20:33:55.058Z,101356.59
2018-05-15T20:36:22.703Z,101359.14
2018-05-15T20:38:50.321Z,101364.31
2018-05-15T20:41:17.959Z,101359.90
2018-05-15T20:43:45.578Z,101358.55
2018-05-15T20:46:13.579Z,101350.69
2018-05-15T20:48:41.198Z,101349.30
2018-05-15T20:51:08.842Z,101351.46
2018-05-15T20:53:36.467Z,101352.72
2018-05-15T20:56:04.231Z,101347.04
2018-05-15T20:58:31.842Z,101344.84
2018-05-15T21:00:59.454Z,101343.49
2018-05-15T21:03:27.095Z,101343.04
2018-05-15T21:05:54.775Z,101347.34
2018-05-15T21:08:22.419Z,101344.70
2018-05-15T21:10:50.040Z,101345.13
2018-05-15T21:13:17.682Z,101349.01
2018-05-15T21:15:45.294Z,101342.92
2018-05-15T21:18:12.991Z,101342.05
2018-05-15T21:20:40.650Z,101338.11
2018-05-15T21:23:08.315Z,101336.81
2018-05-15T21:25:36.067Z,101331.13
2018-05-15T21:28:03.702Z,101338.52
2018-05-15T21:30:31.315Z,101339.83
2018-05-15T21:32:59.062Z,101332.46
2018-05-15T21:35:26.731Z,101332.02
2018-05-15T21:37:54.369Z,101337.24
2018-05-15T21:40:22.059Z,101335.50
2018-05-15T21:42:49.694Z,101338.14
2018-05-15T21:45:17.376Z,101340.31
2018-05-15T21:47:45.019Z,101336.39
2018-05-15T21:50:12.635Z,101339.44
2018-05-15T21:52:40.273Z,101336.81
2018-05-15T21:55:07.912Z,101331.98
2018-05-15T21:57:35.576Z,101338.88
2018-05-15T22:00:03.192Z,101348.86
2018-05-15T22:02:30.830Z,101348.80
2018-05-15T22:04:58.452Z,101345.73
2018-05-15T22:07:26.094Z,101347.42
2018-05-15T22:09:53.800Z,101346.06
2018-05-15T22:12:33.111Z,101347.34
2018-05-15T22:15:12.570Z,101349.89
2018-05-15T22:17:51.944Z,101349.84
2018-05-15T22:20:31.512Z,101343.29
2018-05-15T22:22:58.571Z,101337.61
2018-05-15T22:25:26.191Z,101341.92
2018-05-15T22:27:53.846Z,101329.33
2018-05-15T22:30:21.462Z,101331.47
2018-05-15T22:32:49.078Z,101325.36
2018-05-15T22:35:16.718Z,101325.30
2018-05-15T22:37:44.367Z,101320.52
2018-05-15T22:40:12.034Z,101315.71
2018-05-15T22:42:39.659Z,101323.06
2018-05-15T22:45:07.354Z,101324.80
2018-05-15T22:47:34.968Z,101322.63
2018-05-15T22:50:02.607Z,101319.16
2018-05-15T22:52:30.855Z,101314.81
2018-05-15T22:54:58.496Z,101304.36
2018-05-15T22:57:26.114Z,101305.22
2018-05-15T22:59:53.842Z,101305.19
2018-05-15T23:02:21.460Z,101303.45
2018-05-15T23:04:49.098Z,101296.51
2018-05-15T23:07:16.718Z,101294.34
2018-05-15T23:09:44.392Z,101289.99
2018-05-15T23:12:12.006Z,101293.03
2018-05-15T23:14:39.647Z,101293.90
2018-05-15T23:17:07.266Z,101296.07
2018-05-15T23:19:34.936Z,101287.38
2018-05-15T23:22:02.600Z,101293.44
2018-05-15T23:24:30.252Z,101295.61
2018-05-15T23:26:57.926Z,101306.44
2018-05-15T23:29:25.705Z,101300.36
2018-05-15T23:31:53.251Z,101300.33
2018-05-15T23:34:20.925Z,101300.33
2018-05-15T23:36:48.574Z,101306.81
2018-05-15T23:39:16.188Z,101307.65
2018-05-15T23:41:43.839Z,101308.92
2018-05-15T23:44:11.459Z,101313.27
2018-05-15T23:46:39.123Z,101315.84
2018-05-15T23:49:06.743Z,101311.06
2018-05-15T23:51:34.447Z,101312.73
2018-05-15T23:54:02.106Z,101312.73
2018-05-15T23:56:29.747Z,101305.31
2018-05-15T23:58:57.366Z,101304.41
